sensor_id;sensor_type;location;lat;lon;timestamp;temperature;humidity
13686;DHT22;6915;48.296;8.874;2022-12-18T07:44:03;-14.30;99.90
13686;DHT22;6915;48.296;8.874;2022-12-18T07:46:31;-14.20;99.90
13686;DHT22;6915;48.296;8.874;2022-12-18T07:49:00;-14.10;99.90
13686;DHT22;6915;48.296;8.874;2022-12-18T07:51:30;-14.10;99.90
13686;DHT22;6915;48.296;8.874;2022-12-18T07:53:59;-14.10;99.90
13686;DHT22;6915;48.296;8.874;2022-12-18T07:56:29;-14.10;99.90
13686;DHT22;6915;48.296;8.874;2022-12-18T07:59:03;-14.20;99.90
13686;DHT22;6915;48.296;8.874;2022-12-18T08:01:34;-14.10;99.90
13686;DHT22;6915;48.296;8.874;2022-12-18T08:04:03;-14.10;99.90
13686;DHT22;6915;48.296;8.874;2022-12-18T08:06:32;-14.00;99.90
13686;DHT22;6915;48.296;8.874;2022-12-18T08:09:03;-13.90;99.90
13686;DHT22;6915;48.296;8.874;2022-12-18T08:11:33;-13.90;99.90
13686;DHT22;6915;48.296;8.874;2022-12-18T08:14:02;-13.80;99.90
13686;DHT22;6915;48.296;8.874;2022-12-18T08:16:31;-13.70;99.90
13686;DHT22;6915;48.296;8.874;2022-12-18T08:19:02;-13.60;99.90
13686;DHT22;6915;48.296;8.874;2022-12-18T08:21:32;-13.50;99.90
13686;DHT22;6915;48.296;8.874;2022-12-18T08:24:02;-13.50;99.90
13686;DHT22;6915;48.296;8.874;2022-12-18T08:26:33;-13.40;99.90
13686;DHT22;6915;48.296;8.874;2022-12-18T08:29:02;-13.30;99.90
13686;DHT22;6915;48.296;8.874;2022-12-18T08:31:31;-13.20;99.90
13686;DHT22;6915;48.296;8.874;2022-12-18T08:34:02;-13.20;99.90
13686;DHT22;6915;48.296;8.874;2022-12-18T08:36:30;-13.10;99.90
13686;DHT22;6915;48.296;8.874;2022-12-18T08:39:03;-13.00;99.90
13686;DHT22;6915;48.296;8.874;2022-12-18T08:41:33;-12.90;99.90
13686;DHT22;6915;48.296;8.874;2022-12-18T08:44:01;-12.80;99.90
13686;DHT22;6915;48.296;8.874;2022-12-18T08:46:47;-12.60;99.90
13686;DHT22;6915;48.296;8.874;2022-12-18T08:49:18;-12.60;99.90
13686;DHT22;6915;48.296;8.874;2022-12-18T08:51:46;-12.50;99.90
13686;DHT22;6915;48.296;8.874;2022-12-18T08:54:15;-12.50;99.90
13686;DHT22;6915;48.296;8.874;2022-12-18T08:56:44;-12.40;99.90
13686;DHT22;6915;48.296;8.874;2022-12-18T08:59:13;-12.20;99.90
13686;DHT22;6915;48.296;8.874;2022-12-18T09:01:42;-12.00;99.90
13686;DHT22;6915;48.296;8.874;2022-12-18T09:04:11;-11.80;99.90
13686;DHT22;6915;48.296;8.874;2022-12-18T09:06:42;-11.70;99.90
13686;DHT22;6915;48.296;8.874;2022-12-18T09:09:11;-11.50;99.90
13686;DHT22;6915;48.296;8.874;2022-12-18T09:11:40;-11.40;99.90
13686;DHT22;6915;48.296;8.874;2022-12-18T09:14:10;-11.10;99.90
13686;DHT22;6915;48.296;8.874;2022-12-18T09:16:39;-11.00;99.90
13686;DHT22;6915;48.296;8.874;2022-12-18T09:19:08;-10.80;99.90
13686;DHT22;6915;48.296;8.874;2022-12-18T09:21:42;-10.70;99.90
13686;DHT22;6915;48.296;8.874;2022-12-18T09:24:13;-10.50;99.90
13686;DHT22;6915;48.296;8.874;2022-12-18T09:26:42;-10.40;99.90
13686;DHT22;6915;48.296;8.874;2022-12-18T09:29:11;-10.30;99.90
13686;DHT22;6915;48.296;8.874;2022-12-18T09:31:40;-10.10;99.90
13686;DHT22;6915;48.296;8.874;2022-12-18T09:34:09;-10.10;99.90
13686;DHT22;6915;48.296;8.874;2022-12-18T09:36:38;-9.90;99.90
13686;DHT22;6915;48.296;8.874;2022-12-18T09:39:08;-9.80;99.90
13686;DHT22;6915;48.296;8.874;2022-12-18T09:41:41;-9.70;99.90
13686;DHT22;6915;48.296;8.874;2022-12-18T09:44:16;-9.50;99.90
13686;DHT22;6915;48.296;8.874;2022-12-18T09:46:48;-9.30;99.90
13686;DHT22;6915;48.296;8.874;2022-12-18T09:49:21;-9.20;99.90
13686;DHT22;6915;48.296;8.874;2022-12-18T09:51:54;-9.20;99.90
13686;DHT22;6915;48.296;8.874;2022-12-18T09:54:30;-9.00;99.90
13686;DHT22;6915;48.296;8.874;2022-12-18T09:57:00;-8.90;99.90
13686;DHT22;6915;48.296;8.874;2022-12-18T09:59:33;-8.70;99.90
13686;DHT22;6915;48.296;8.874;2022-12-18T10:02:16;-8.50;99.90
13686;DHT22;6915;48.296;8.874;2022-12-18T10:04:50;-8.20;99.90
13686;DHT22;6915;48.296;8.874;2022-12-18T10:07:24;-8.00;99.90
13686;DHT22;6915;48.296;8.874;2022-12-18T10:10:03;-8.10;99.90
13686;DHT22;6915;48.296;8.874;2022-12-18T10:12:39;-7.90;99.90
13686;DHT22;6915;48.296;8.874;2022-12-18T10:15:13;-7.70;99.90
13686;DHT22;6915;48.296;8.874;2022-12-18T10:17:49;-7.70;99.90
13686;DHT22;6915;48.296;8.874;2022-12-18T10:20:23;-7.50;99.90
13686;DHT22;6915;48.296;8.874;2022-12-18T10:23:00;-7.40;99.90
13686;DHT22;6915;48.296;8.874;2022-12-18T10:25:36;-7.30;99.90
13686;DHT22;6915;48.296;8.874;2022-12-18T10:28:12;-7.20;99.90
13686;DHT22;6915;48.296;8.874;2022-12-18T10:30:42;-7.00;99.90
13686;DHT22;6915;48.296;8.874;2022-12-18T10:33:18;-6.90;99.90
13686;DHT22;6915;48.296;8.874;2022-12-18T10:35:49;-6.60;99.90
13686;DHT22;6915;48.296;8.874;2022-12-18T10:38:24;-6.50;99.90
13686;DHT22;6915;48.296;8.874;2022-12-18T10:40:56;-6.20;99.90
13686;DHT22;6915;48.296;8.874;2022-12-18T10:43:27;-6.20;99.90
13686;DHT22;6915;48.296;8.874;2022-12-18T10:48:56;-5.90;99.90
13686;DHT22;6915;48.296;8.874;2022-12-18T10:51:26;-5.70;99.90
13686;DHT22;6915;48.296;8.874;2022-12-18T10:54:00;-5.50;99.90
13686;DHT22;6915;48.296;8.874;2022-12-18T10:56:33;-5.30;99.90
13686;DHT22;6915;48.296;8.874;2022-12-18T10:59:05;-5.10;99.90
13686;DHT22;6915;48.296;8.874;2022-12-18T11:01:46;-5.10;99.90
13686;DHT22;6915;48.296;8.874;2022-12-18T11:04:18;-5.00;99.90
13686;DHT22;6915;48.296;8.874;2022-12-18T11:06:57;-4.80;99.90
13686;DHT22;6915;48.296;8.874;2022-12-18T11:09:28;-4.70;99.90
13686;DHT22;6915;48.296;8.874;2022-12-18T11:12:03;-4.60;99.90
13686;DHT22;6915;48.296;8.874;2022-12-18T11:14:41;-4.40;99.90
13686;DHT22;6915;48.296;8.874;2022-12-18T11:17:20;-4.40;99.90
13686;DHT22;6915;48.296;8.874;2022-12-18T11:19:54;-4.30;99.90
13686;DHT22;6915;48.296;8.874;2022-12-18T11:22:27;-4.30;99.90
13686;DHT22;6915;48.296;8.874;2022-12-18T11:24:58;-4.10;99.90
13686;DHT22;6915;48.296;8.874;2022-12-18T11:27:30;-4.10;99.90
13686;DHT22;6915;48.296;8.874;2022-12-18T11:30:10;-3.90;99.90
13686;DHT22;6915;48.296;8.874;2022-12-18T11:32:40;-3.80;99.90
13686;DHT22;6915;48.296;8.874;2022-12-18T11:35:19;-3.80;99.90
13686;DHT22;6915;48.296;8.874;2022-12-18T11:37:53;-3.80;99.90
13686;DHT22;6915;48.296;8.874;2022-12-18T11:40:30;-3.70;99.90
13686;DHT22;6915;48.296;8.874;2022-12-18T11:43:05;-3.60;99.90
13686;DHT22;6915;48.296;8.874;2022-12-18T11:45:38;-3.40;99.90
13686;DHT22;6915;48.296;8.874;2022-12-18T11:48:18;-3.40;99.90
13686;DHT22;6915;48.296;8.874;2022-12-18T11:50:51;-3.30;99.90
13686;DHT22;6915;48.296;8.874;2022-12-18T11:53:22;-3.30;99.90
13686;DHT22;6915;48.296;8.874;2022-12-18T11:55:58;-3.20;99.90
13686;DHT22;6915;48.296;8.874;2022-12-18T11:58:46;-3.10;99.90
13686;DHT22;6915;48.296;8.874;2022-12-18T12:01:23;-3.00;99.90
13686;DHT22;6915;48.296;8.874;2022-12-18T12:07:17;-2.90;99.90
13686;DHT22;6915;48.296;8.874;2022-12-18T12:09:53;-3.00;99.90
13686;DHT22;6915;48.296;8.874;2022-12-18T12:12:31;-2.90;99.90
13686;DHT22;6915;48.296;8.874;2022-12-18T12:15:23;-2.90;99.90
13686;DHT22;6915;48.296;8.874;2022-12-18T12:18:00;-2.70;99.90
13686;DHT22;6915;48.296;8.874;2022-12-18T12:20:40;-2.60;99.90
13686;DHT22;6915;48.296;8.874;2022-12-18T12:23:19;-2.30;99.90
13686;DHT22;6915;48.296;8.874;2022-12-18T12:25:54;-2.30;99.90
13686;DHT22;6915;48.296;8.874;2022-12-18T12:28:36;-2.30;99.90
13686;DHT22;6915;48.296;8.874;2022-12-18T12:31:19;-2.20;99.90
13686;DHT22;6915;48.296;8.874;2022-12-18T12:33:56;-2.20;99.90
13686;DHT22;6915;48.296;8.874;2022-12-18T12:36:37;-2.10;99.90
13686;DHT22;6915;48.296;8.874;2022-12-18T12:39:13;-2.00;99.90
13686;DHT22;6915;48.296;8.874;2022-12-18T12:41:45;-1.90;99.90
13686;DHT22;6915;48.296;8.874;2022-12-18T12:44:35;-1.60;99.90
13686;DHT22;6915;48.296;8.874;2022-12-18T12:47:13;-1.50;99.90
13686;DHT22;6915;48.296;8.874;2022-12-18T12:49:43;-1.50;99.90
13686;DHT22;6915;48.296;8.874;2022-12-18T12:52:16;-1.30;99.90
13686;DHT22;6915;48.296;8.874;2022-12-18T12:54:48;-1.20;99.90
13686;DHT22;6915;48.296;8.874;2022-12-18T12:57:36;-0.90;99.90
13686;DHT22;6915;48.296;8.874;2022-12-18T13:00:08;-0.80;99.90
13686;DHT22;6915;48.296;8.874;2022-12-18T13:02:42;-0.80;99.90
13686;DHT22;6915;48.296;8.874;2022-12-18T13:05:21;-0.70;99.90
13686;DHT22;6915;48.296;8.874;2022-12-18T13:07:54;-0.70;99.90
13686;DHT22;6915;48.296;8.874;2022-12-18T13:10:33;-0.80;99.90
13686;DHT22;6915;48.296;8.874;2022-12-18T13:13:04;-0.80;99.90
13686;DHT22;6915;48.296;8.874;2022-12-18T13:15:41;-0.90;99.90
13686;DHT22;6915;48.296;8.874;2022-12-18T13:18:22;-0.80;99.90
13686;DHT22;6915;48.296;8.874;2022-12-18T13:21:04;-0.70;99.90
13686;DHT22;6915;48.296;8.874;2022-12-18T13:23:37;-0.70;99.90
13686;DHT22;6915;48.296;8.874;2022-12-18T13:26:28;-0.80;99.90
13686;DHT22;6915;48.296;8.874;2022-12-18T13:29:00;-0.90;99.90
13686;DHT22;6915;48.296;8.874;2022-12-18T13:31:58;-1.00;99.90
13686;DHT22;6915;48.296;8.874;2022-12-18T13:34:30;-1.20;99.90
13686;DHT22;6915;48.296;8.874;2022-12-18T13:43:23;-1.30;99.90
13686;DHT22;6915;48.296;8.874;2022-12-18T13:48:50;-1.30;99.90
13686;DHT22;6915;48.296;8.874;2022-12-18T13:51:19;-1.40;99.90
13686;DHT22;6915;48.296;8.874;2022-12-18T13:53:52;-1.50;99.90
13686;DHT22;6915;48.296;8.874;2022-12-18T13:56:26;-1.40;99.90
13686;DHT22;6915;48.296;8.874;2022-12-18T13:59:09;-1.50;99.90
13686;DHT22;6915;48.296;8.874;2022-12-18T14:01:45;-1.50;99.90
13686;DHT22;6915;48.296;8.874;2022-12-18T14:04:19;-1.50;99.90
13686;DHT22;6915;48.296;8.874;2022-12-18T14:06:47;-1.50;99.90
13686;DHT22;6915;48.296;8.874;2022-12-18T14:09:23;-1.60;99.90
13686;DHT22;6915;48.296;8.874;2022-12-18T14:12:01;-1.70;99.90
13686;DHT22;6915;48.296;8.874;2022-12-18T14:14:50;-1.80;99.90
13686;DHT22;6915;48.296;8.874;2022-12-18T14:17:26;-1.80;99.90
13686;DHT22;6915;48.296;8.874;2022-12-18T14:20:05;-2.10;99.90
13686;DHT22;6915;48.296;8.874;2022-12-18T14:22:58;-2.10;99.90
13686;DHT22;6915;48.296;8.874;2022-12-18T14:25:33;-2.20;99.90
13686;DHT22;6915;48.296;8.874;2022-12-18T14:28:16;-2.20;99.90
13686;DHT22;6915;48.296;8.874;2022-12-18T14:30:55;-2.50;99.90
13686;DHT22;6915;48.296;8.874;2022-12-18T14:33:35;-2.60;99.90
13686;DHT22;6915;48.296;8.874;2022-12-18T14:36:19;-2.70;99.90
13686;DHT22;6915;48.296;8.874;2022-12-18T14:38:54;-2.90;99.90
13686;DHT22;6915;48.296;8.874;2022-12-18T14:41:36;-2.90;99.90
13686;DHT22;6915;48.296;8.874;2022-12-18T14:44:16;-3.10;99.90
13686;DHT22;6915;48.296;8.874;2022-12-18T14:47:01;-3.20;99.90
13686;DHT22;6915;48.296;8.874;2022-12-18T14:49:34;-3.30;99.90
13686;DHT22;6915;48.296;8.874;2022-12-18T14:52:23;-3.40;99.90
13686;DHT22;6915;48.296;8.874;2022-12-18T14:55:02;-3.40;99.90
13686;DHT22;6915;48.296;8.874;2022-12-18T15:00:24;-3.70;99.90
13686;DHT22;6915;48.296;8.874;2022-12-18T15:03:00;-3.90;99.90
13686;DHT22;6915;48.296;8.874;2022-12-18T15:05:37;-4.00;99.90
13686;DHT22;6915;48.296;8.874;2022-12-18T15:08:29;-4.30;99.90
13686;DHT22;6915;48.296;8.874;2022-12-18T15:11:01;-4.40;99.90
13686;DHT22;6915;48.296;8.874;2022-12-18T15:13:32;-4.50;99.90
13686;DHT22;6915;48.296;8.874;2022-12-18T15:16:14;-4.70;99.90
13686;DHT22;6915;48.296;8.874;2022-12-18T15:18:48;-4.80;99.90
13686;DHT22;6915;48.296;8.874;2022-12-18T15:21:25;-5.00;99.90
13686;DHT22;6915;48.296;8.874;2022-12-18T15:24:01;-5.10;99.90
13686;DHT22;6915;48.296;8.874;2022-12-18T15:26:38;-5.30;99.90
13686;DHT22;6915;48.296;8.874;2022-12-18T15:29:18;-5.30;99.90
13686;DHT22;6915;48.296;8.874;2022-12-18T15:32:16;-5.60;99.90
13686;DHT22;6915;48.296;8.874;2022-12-18T15:34:47;-5.70;99.90
13686;DHT22;6915;48.296;8.874;2022-12-18T15:37:16;-5.90;99.90
13686;DHT22;6915;48.296;8.874;2022-12-18T15:39:45;-5.90;99.90
13686;DHT22;6915;48.296;8.874;2022-12-18T15:42:17;-6.10;99.90
13686;DHT22;6915;48.296;8.874;2022-12-18T15:45:03;-6.00;99.90
13686;DHT22;6915;48.296;8.874;2022-12-18T15:47:33;-6.30;99.90
13686;DHT22;6915;48.296;8.874;2022-12-18T15:50:03;-6.30;99.90
13686;DHT22;6915;48.296;8.874;2022-12-18T15:52:44;-6.30;99.90
13686;DHT22;6915;48.296;8.874;2022-12-18T15:55:15;-6.10;99.90
13686;DHT22;6915;48.296;8.874;2022-12-18T15:58:03;-6.00;99.90
13686;DHT22;6915;48.296;8.874;2022-12-18T16:00:40;-6.10;99.90
13686;DHT22;6915;48.296;8.874;2022-12-18T16:03:14;-6.20;99.90
13686;DHT22;6915;48.296;8.874;2022-12-18T16:05:44;-6.30;99.90
13686;DHT22;6915;48.296;8.874;2022-12-18T16:08:13;-6.30;99.90
13686;DHT22;6915;48.296;8.874;2022-12-18T16:10:43;-6.40;99.90
13686;DHT22;6915;48.296;8.874;2022-12-18T16:13:14;-6.40;99.90
13686;DHT22;6915;48.296;8.874;2022-12-18T16:15:45;-6.40;99.90
13686;DHT22;6915;48.296;8.874;2022-12-18T16:18:18;-6.30;99.90
13686;DHT22;6915;48.296;8.874;2022-12-18T16:20:47;-6.40;99.90
13686;DHT22;6915;48.296;8.874;2022-12-18T16:23:16;-6.40;99.90
13686;DHT22;6915;48.296;8.874;2022-12-18T16:25:45;-6.40;99.90
13686;DHT22;6915;48.296;8.874;2022-12-18T16:28:17;-6.30;99.90
13686;DHT22;6915;48.296;8.874;2022-12-18T16:30:48;-6.20;99.90
13686;DHT22;6915;48.296;8.874;2022-12-18T16:33:28;-6.20;99.90
13686;DHT22;6915;48.296;8.874;2022-12-18T16:35:57;-6.20;99.90
13686;DHT22;6915;48.296;8.874;2022-12-18T16:38:27;-6.30;99.90
13686;DHT22;6915;48.296;8.874;2022-12-18T16:40:57;-6.20;99.90
13686;DHT22;6915;48.296;8.874;2022-12-18T16:43:43;-6.10;99.90
13686;DHT22;6915;48.296;8.874;2022-12-18T16:46:12;-6.10;99.90
13686;DHT22;6915;48.296;8.874;2022-12-18T16:48:43;-6.10;99.90
13686;DHT22;6915;48.296;8.874;2022-12-18T16:51:12;-6.10;99.90
13686;DHT22;6915;48.296;8.874;2022-12-18T16:53:41;-6.10;99.90
13686;DHT22;6915;48.296;8.874;2022-12-18T16:56:21;-6.00;99.90
13686;DHT22;6915;48.296;8.874;2022-12-18T16:58:54;-5.90;99.90
13686;DHT22;6915;48.296;8.874;2022-12-18T17:01:24;-5.80;99.90
13686;DHT22;6915;48.296;8.874;2022-12-18T17:03:55;-5.80;99.90
13686;DHT22;6915;48.296;8.874;2022-12-18T17:06:26;-5.70;99.90
13686;DHT22;6915;48.296;8.874;2022-12-18T17:08:57;-5.80;99.90
13686;DHT22;6915;48.296;8.874;2022-12-18T17:11:27;-5.80;99.90
13686;DHT22;6915;48.296;8.874;2022-12-18T17:13:56;-5.80;99.90
13686;DHT22;6915;48.296;8.874;2022-12-18T17:16:25;-5.70;99.90
13686;DHT22;6915;48.296;8.874;2022-12-18T17:18:57;-5.70;99.90
13686;DHT22;6915;48.296;8.874;2022-12-18T17:21:26;-5.60;99.90
13686;DHT22;6915;48.296;8.874;2022-12-18T17:23:55;-5.70;99.90
13686;DHT22;6915;48.296;8.874;2022-12-18T17:26:27;-5.60;99.90
13686;DHT22;6915;48.296;8.874;2022-12-18T17:28:58;-5.70;99.90
13686;DHT22;6915;48.296;8.874;2022-12-18T17:31:29;-5.70;99.90
13686;DHT22;6915;48.296;8.874;2022-12-18T17:33:59;-5.70;99.90
13686;DHT22;6915;48.296;8.874;2022-12-18T17:36:29;-5.70;99.90
13686;DHT22;6915;48.296;8.874;2022-12-18T17:39:00;-5.50;99.90
13686;DHT22;6915;48.296;8.874;2022-12-18T17:41:29;-5.60;99.90
13686;DHT22;6915;48.296;8.874;2022-12-18T17:44:00;-5.60;99.90
13686;DHT22;6915;48.296;8.874;2022-12-18T17:46:31;-5.60;99.90
13686;DHT22;6915;48.296;8.874;2022-12-18T17:49:03;-5.60;99.90
13686;DHT22;6915;48.296;8.874;2022-12-18T17:51:32;-5.50;99.90
13686;DHT22;6915;48.296;8.874;2022-12-18T17:54:00;-5.60;99.90
13686;DHT22;6915;48.296;8.874;2022-12-18T17:56:29;-5.60;99.90
13686;DHT22;6915;48.296;8.874;2022-12-18T17:58:59;-5.60;99.90
13686;DHT22;6915;48.296;8.874;2022-12-18T18:01:28;-5.50;99.90
13686;DHT22;6915;48.296;8.874;2022-12-18T18:03:58;-5.60;99.90
13686;DHT22;6915;48.296;8.874;2022-12-18T18:06:31;-5.50;99.90
13686;DHT22;6915;48.296;8.874;2022-12-18T18:09:01;-5.50;99.90
13686;DHT22;6915;48.296;8.874;2022-12-18T18:11:30;-5.40;99.90
13686;DHT22;6915;48.296;8.874;2022-12-18T18:14:19;-5.40;99.90
13686;DHT22;6915;48.296;8.874;2022-12-18T18:16:50;-5.30;99.90
13686;DHT22;6915;48.296;8.874;2022-12-18T18:19:21;-5.40;99.90
13686;DHT22;6915;48.296;8.874;2022-12-18T18:21:53;-5.40;99.90
13686;DHT22;6915;48.296;8.874;2022-12-18T18:24:22;-5.30;99.90
13686;DHT22;6915;48.296;8.874;2022-12-18T18:26:56;-5.30;99.90
13686;DHT22;6915;48.296;8.874;2022-12-18T18:29:56;-5.30;99.90
13686;DHT22;6915;48.296;8.874;2022-12-18T18:37:20;-5.20;99.90
13686;DHT22;6915;48.296;8.874;2022-12-18T18:39:23;-5.00;99.90
13686;DHT22;6915;48.296;8.874;2022-12-18T19:05:20;-5.10;99.90
13686;DHT22;6915;48.296;8.874;2022-12-18T19:47:48;-4.70;99.90
13686;DHT22;6915;48.296;8.874;2022-12-18T19:50:23;-4.70;99.90
13686;DHT22;6915;48.296;8.874;2022-12-18T21:01:26;-4.00;99.90
13686;DHT22;6915;48.296;8.874;2022-12-18T21:03:55;-3.70;99.90
13686;DHT22;6915;48.296;8.874;2022-12-18T21:06:25;-3.50;99.90
13686;DHT22;6915;48.296;8.874;2022-12-18T21:09:00;-3.40;99.90
13686;DHT22;6915;48.296;8.874;2022-12-18T21:11:30;-3.30;99.90
13686;DHT22;6915;48.296;8.874;2022-12-18T21:14:19;-3.20;99.90
13686;DHT22;6915;48.296;8.874;2022-12-18T21:16:56;-3.10;99.90
13686;DHT22;6915;48.296;8.874;2022-12-18T21:19:27;-3.10;99.90
13686;DHT22;6915;48.296;8.874;2022-12-18T21:21:56;-3.20;99.90
13686;DHT22;6915;48.296;8.874;2022-12-18T21:24:25;-3.30;99.90
13686;DHT22;6915;48.296;8.874;2022-12-18T21:26:54;-3.40;99.90
13686;DHT22;6915;48.296;8.874;2022-12-18T21:29:24;-3.50;99.90
13686;DHT22;6915;48.296;8.874;2022-12-18T21:31:55;-3.50;99.90
13686;DHT22;6915;48.296;8.874;2022-12-18T21:34:25;-3.60;99.90
13686;DHT22;6915;48.296;8.874;2022-12-18T21:36:55;-3.70;99.90
13686;DHT22;6915;48.296;8.874;2022-12-18T21:39:25;-3.70;99.90
13686;DHT22;6915;48.296;8.874;2022-12-18T21:41:55;-3.60;99.90
13686;DHT22;6915;48.296;8.874;2022-12-18T21:44:43;-3.60;99.90
13686;DHT22;6915;48.296;8.874;2022-12-18T21:47:13;-3.60;99.90
13686;DHT22;6915;48.296;8.874;2022-12-18T21:49:42;-3.50;99.90
13686;DHT22;6915;48.296;8.874;2022-12-18T21:52:11;-3.60;99.90
13686;DHT22;6915;48.296;8.874;2022-12-18T21:54:40;-3.60;99.90
13686;DHT22;6915;48.296;8.874;2022-12-18T21:57:09;-3.60;99.90
13686;DHT22;6915;48.296;8.874;2022-12-18T21:59:40;-3.60;99.90
13686;DHT22;6915;48.296;8.874;2022-12-18T22:02:12;-3.60;99.90
13686;DHT22;6915;48.296;8.874;2022-12-18T22:04:41;-3.60;99.90
13686;DHT22;6915;48.296;8.874;2022-12-18T22:07:11;-3.60;99.90
13686;DHT22;6915;48.296;8.874;2022-12-18T22:09:40;-3.60;99.90
13686;DHT22;6915;48.296;8.874;2022-12-18T22:12:11;-3.60;99.90
13686;DHT22;6915;48.296;8.874;2022-12-18T22:15:00;-3.50;99.90
13686;DHT22;6915;48.296;8.874;2022-12-18T22:17:30;-3.50;99.90
13686;DHT22;6915;48.296;8.874;2022-12-18T22:19:59;-3.50;99.90
13686;DHT22;6915;48.296;8.874;2022-12-18T22:22:27;-3.50;99.90
13686;DHT22;6915;48.296;8.874;2022-12-18T22:24:56;-3.60;99.90
13686;DHT22;6915;48.296;8.874;2022-12-18T22:27:25;-3.50;99.90
13686;DHT22;6915;48.296;8.874;2022-12-18T22:29:53;-3.60;99.90
13686;DHT22;6915;48.296;8.874;2022-12-18T22:32:35;-3.50;99.90
13686;DHT22;6915;48.296;8.874;2022-12-18T22:35:04;-3.50;99.90
13686;DHT22;6915;48.296;8.874;2022-12-18T22:37:33;-3.50;99.90
13686;DHT22;6915;48.296;8.874;2022-12-18T22:40:02;-3.50;99.90
13686;DHT22;6915;48.296;8.874;2022-12-18T22:42:31;-3.40;99.90
13686;DHT22;6915;48.296;8.874;2022-12-18T22:44:59;-3.30;99.90
13686;DHT22;6915;48.296;8.874;2022-12-18T22:47:28;-3.50;99.90
13686;DHT22;6915;48.296;8.874;2022-12-18T22:49:58;-3.40;99.90
13686;DHT22;6915;48.296;8.874;2022-12-18T22:52:27;-3.40;99.90
13686;DHT22;6915;48.296;8.874;2022-12-18T22:54:55;-3.20;99.90
13686;DHT22;6915;48.296;8.874;2022-12-18T22:57:24;-3.30;99.90
13686;DHT22;6915;48.296;8.874;2022-12-18T22:59:53;-3.20;99.90
13686;DHT22;6915;48.296;8.874;2022-12-18T23:02:22;-3.20;99.90
13686;DHT22;6915;48.296;8.874;2022-12-18T23:04:50;-3.20;99.90
13686;DHT22;6915;48.296;8.874;2022-12-18T23:07:20;-3.20;99.90
13686;DHT22;6915;48.296;8.874;2022-12-18T23:09:51;-3.10;99.90
13686;DHT22;6915;48.296;8.874;2022-12-18T23:12:20;-3.00;99.90
13686;DHT22;6915;48.296;8.874;2022-12-18T23:14:49;-3.10;99.90
13686;DHT22;6915;48.296;8.874;2022-12-18T23:17:17;-3.10;99.90
13686;DHT22;6915;48.296;8.874;2022-12-18T23:19:46;-3.00;99.90
13686;DHT22;6915;48.296;8.874;2022-12-18T23:22:14;-3.10;99.90
13686;DHT22;6915;48.296;8.874;2022-12-18T23:24:44;-2.90;99.90
13686;DHT22;6915;48.296;8.874;2022-12-18T23:27:13;-3.10;99.90
13686;DHT22;6915;48.296;8.874;2022-12-18T23:29:42;-3.20;99.90
13686;DHT22;6915;48.296;8.874;2022-12-18T23:32:11;-3.10;99.90
13686;DHT22;6915;48.296;8.874;2022-12-18T23:34:42;-2.90;99.90
13686;DHT22;6915;48.296;8.874;2022-12-18T23:37:10;-3.10;99.90
13686;DHT22;6915;48.296;8.874;2022-12-18T23:39:39;-3.00;99.90
13686;DHT22;6915;48.296;8.874;2022-12-18T23:42:09;-3.00;99.90
13686;DHT22;6915;48.296;8.874;2022-12-18T23:44:37;-3.00;99.90
13686;DHT22;6915;48.296;8.874;2022-12-18T23:47:06;-3.00;99.90
13686;DHT22;6915;48.296;8.874;2022-12-18T23:49:35;-3.00;99.90
13686;DHT22;6915;48.296;8.874;2022-12-18T23:52:03;-3.00;99.90
13686;DHT22;6915;48.296;8.874;2022-12-18T23:54:32;-2.90;99.90
13686;DHT22;6915;48.296;8.874;2022-12-18T23:57:01;-2.80;99.90
13686;DHT22;6915;48.296;8.874;2022-12-18T23:59:31;-2.80;99.90
